createdAt,value
2018-04-11T00:01:53.476Z,15.48
2018-04-11T00:04:20.200Z,14.10
2018-04-11T00:06:46.838Z,13.57
2018-04-11T00:09:13.478Z,13.27
2018-04-11T00:11:40.110Z,13.70
2018-04-11T00:14:06.765Z,12.23
2018-04-11T00:16:33.399Z,13.90
2018-04-11T00:19:00.026Z,13.77
2018-04-11T00:21:26.786Z,12.85
2018-04-11T00:23:53.427Z,12.20
2018-04-11T00:26:20.075Z,14.38
2018-04-11T00:28:46.791Z,13.50
2018-04-11T00:31:13.433Z,12.80
2018-04-11T00:33:40.091Z,12.00
2018-04-11T00:36:06.735Z,12.75
2018-04-11T00:38:33.457Z,12.95
2018-04-11T00:41:00.086Z,13.65
2018-04-11T00:43:26.823Z,15.77
2018-04-11T00:45:53.573Z,17.00
2018-04-11T00:48:20.227Z,13.02
2018-04-11T00:50:46.950Z,16.27
2018-04-11T00:53:19.545Z,15.45
2018-04-11T00:55:46.270Z,14.40
2018-04-11T00:58:13.006Z,14.98
2018-04-11T01:00:39.650Z,13.25
2018-04-11T01:03:06.280Z,13.00
2018-04-11T01:05:32.915Z,13.23
2018-04-11T01:07:59.559Z,14.30
2018-04-11T01:10:26.194Z,12.90
2018-04-11T01:12:52.854Z,11.60
2018-04-11T01:15:19.577Z,13.43
2018-04-11T01:17:46.198Z,15.15
2018-04-11T01:20:12.959Z,14.20
2018-04-11T01:22:39.584Z,14.73
2018-04-11T01:25:06.219Z,17.98
2018-04-11T01:27:32.872Z,16.92
2018-04-11T01:29:59.620Z,18.15
2018-04-11T01:32:26.364Z,17.60
2018-04-11T01:34:53.107Z,17.98
2018-04-11T01:37:19.766Z,17.85
2018-04-11T01:39:46.394Z,17.45
2018-04-11T01:42:13.114Z,16.35
2018-04-11T01:44:39.750Z,16.87
2018-04-11T01:47:06.374Z,15.30
2018-04-11T01:49:33.022Z,14.80
2018-04-11T01:51:59.657Z,14.68
2018-04-11T01:54:26.311Z,13.38
2018-04-11T01:56:53.055Z,13.45
2018-04-11T01:59:19.704Z,12.75
2018-04-11T02:01:46.350Z,12.45
2018-04-11T02:04:12.983Z,13.15
2018-04-11T02:06:39.610Z,12.02
2018-04-11T02:09:06.254Z,10.80
2018-04-11T02:11:32.888Z,11.05
2018-04-11T02:13:59.560Z,11.02
2018-04-11T02:16:26.270Z,12.32
2018-04-11T02:18:52.892Z,13.13
2018-04-11T02:21:19.556Z,12.85
2018-04-11T02:23:46.200Z,12.70
2018-04-11T02:26:12.831Z,14.30
2018-04-11T02:28:39.467Z,11.93
2018-04-11T02:31:06.107Z,11.38
2018-04-11T02:33:32.744Z,10.40
2018-04-11T02:35:59.499Z,10.63
2018-04-11T02:38:26.122Z,9.73
2018-04-11T02:40:52.756Z,9.75
2018-04-11T02:43:19.406Z,9.80
2018-04-11T02:45:46.035Z,11.10
2018-04-11T02:48:12.689Z,11.60
2018-04-11T02:50:39.432Z,10.40
2018-04-11T02:53:06.068Z,12.82
2018-04-11T02:55:32.803Z,11.68
2018-04-11T02:57:59.430Z,11.43
2018-04-11T03:00:26.192Z,12.50
2018-04-11T03:02:52.827Z,11.95
2018-04-11T03:05:19.471Z,12.68
2018-04-11T03:07:46.104Z,13.25
2018-04-11T03:10:12.755Z,14.65
2018-04-11T03:12:39.408Z,15.52
2018-04-11T03:15:06.119Z,15.27
2018-04-11T03:17:32.755Z,16.10
2018-04-11T03:19:59.405Z,14.00
2018-04-11T03:22:26.039Z,16.02
2018-04-11T03:24:52.682Z,20.40
2018-04-11T03:27:19.319Z,18.98
2018-04-11T03:29:45.947Z,16.35
2018-04-11T03:32:12.630Z,16.50
2018-04-11T03:34:39.268Z,16.92
2018-04-11T03:37:05.915Z,19.45
2018-04-11T03:39:32.551Z,17.10
2018-04-11T03:41:59.185Z,19.30
2018-04-11T03:44:25.897Z,23.67
2018-04-11T03:46:52.518Z,22.90
2018-04-11T03:49:19.177Z,21.15
2018-04-11T03:51:45.816Z,18.75
2018-04-11T03:54:12.551Z,20.10
2018-04-11T03:56:39.203Z,19.70
2018-04-11T03:59:05.831Z,20.58
2018-04-11T04:01:32.567Z,23.17
2018-04-11T04:03:59.205Z,21.35
2018-04-11T04:06:25.852Z,22.77
2018-04-11T04:08:52.483Z,21.70
2018-04-11T04:11:19.109Z,20.65
2018-04-11T04:13:51.524Z,19.50
2018-04-11T04:16:24.175Z,20.00
2018-04-11T04:18:56.660Z,22.20
2018-04-11T04:21:23.301Z,20.73
2018-04-11T04:23:50.051Z,24.58
2018-04-11T04:26:16.688Z,22.42
2018-04-11T04:28:43.315Z,23.42
2018-04-11T04:31:10.869Z,25.02
2018-04-11T04:33:37.524Z,25.15
2018-04-11T04:36:04.227Z,24.67
2018-04-11T04:38:30.861Z,22.60
2018-04-11T04:40:57.522Z,22.02
2018-04-11T04:43:24.151Z,20.77
2018-04-11T04:45:50.815Z,20.20
2018-04-11T04:48:17.475Z,19.27
2018-04-11T04:50:44.196Z,21.55
2018-04-11T04:53:10.836Z,19.25
2018-04-11T04:55:37.467Z,19.70
2018-04-11T04:58:04.099Z,22.10
2018-04-11T05:00:30.847Z,20.17
2018-04-11T05:02:57.487Z,20.30
2018-04-11T05:05:24.110Z,21.87
2018-04-11T05:07:50.741Z,22.67
2018-04-11T05:10:17.415Z,20.80
2018-04-11T05:12:44.047Z,21.00
2018-04-11T05:15:10.691Z,20.37
2018-04-11T05:17:37.323Z,19.35
2018-04-11T05:20:04.064Z,21.35
2018-04-11T05:22:30.691Z,20.12
2018-04-11T05:24:57.350Z,21.95
2018-04-11T05:27:23.993Z,21.08
2018-04-11T05:29:50.727Z,21.35
2018-04-11T05:32:17.426Z,21.30
2018-04-11T05:34:44.130Z,26.12
2018-04-11T05:37:10.887Z,21.33
2018-04-11T05:39:37.512Z,22.90
2018-04-11T05:42:04.232Z,21.17
2018-04-11T05:44:30.856Z,20.27
2018-04-11T05:46:57.499Z,22.80
2018-04-11T05:49:24.140Z,19.27
2018-04-11T05:51:50.806Z,20.35
2018-04-11T05:54:17.451Z,19.65
2018-04-11T05:56:44.081Z,21.40
2018-04-11T05:59:10.710Z,19.00
2018-04-11T06:01:37.356Z,18.42
2018-04-11T06:04:03.996Z,20.17
2018-04-11T06:06:30.727Z,19.77
2018-04-11T06:08:57.384Z,18.92
2018-04-11T06:11:24.017Z,19.33
2018-04-11T06:13:50.740Z,17.65
2018-04-11T06:16:17.366Z,22.15
2018-04-11T06:18:44.012Z,20.92
2018-04-11T06:21:10.767Z,20.60
2018-04-11T06:23:37.521Z,20.92
2018-04-11T06:26:04.244Z,21.20
2018-04-11T06:28:30.890Z,19.95
2018-04-11T06:30:57.518Z,23.35
2018-04-11T06:33:24.250Z,20.50
2018-04-11T06:35:50.957Z,19.48
2018-04-11T06:38:17.578Z,18.60
2018-04-11T06:40:44.228Z,16.30
2018-04-11T06:43:10.858Z,18.58
2018-04-11T06:45:37.563Z,17.87
2018-04-11T06:48:04.209Z,17.62
2018-04-11T06:50:30.845Z,16.92
2018-04-11T06:52:57.599Z,19.20
2018-04-11T06:55:24.227Z,17.85
2018-04-11T06:57:50.873Z,18.58
2018-04-11T07:00:17.509Z,17.58
2018-04-11T07:02:44.244Z,15.30
2018-04-11T07:05:10.899Z,18.08
2018-04-11T07:07:37.613Z,16.60
2018-04-11T07:10:04.380Z,16.05
2018-04-11T07:12:31.097Z,16.55
2018-04-11T07:14:57.847Z,15.27
2018-04-11T07:17:24.499Z,16.20
2018-04-11T07:19:51.248Z,15.27
2018-04-11T07:22:17.866Z,16.25
2018-04-11T07:24:44.504Z,16.80
2018-04-11T07:27:11.159Z,16.85
2018-04-11T07:29:37.786Z,16.85
2018-04-11T07:32:04.442Z,17.20
2018-04-11T07:34:31.071Z,16.23
2018-04-11T07:36:57.728Z,16.62
2018-04-11T07:39:24.439Z,15.93
2018-04-11T07:41:51.088Z,14.18
2018-04-11T07:44:17.730Z,16.70
2018-04-11T07:46:44.446Z,16.60
2018-04-11T07:49:11.199Z,15.93
2018-04-11T07:51:37.862Z,14.90
2018-04-11T07:54:04.570Z,17.10
2018-04-11T07:56:31.320Z,16.05
2018-04-11T07:58:57.955Z,15.52
2018-04-11T08:01:24.699Z,16.58
2018-04-11T08:03:51.336Z,18.25
2018-04-11T08:06:17.983Z,15.30
2018-04-11T08:08:44.617Z,15.95
2018-04-11T08:11:11.361Z,17.02
2018-04-11T08:13:37.998Z,16.05
2018-04-11T08:16:04.628Z,14.35
2018-04-11T08:18:31.269Z,16.67
2018-04-11T08:20:57.911Z,15.90
2018-04-11T08:23:29.103Z,16.65
2018-04-11T08:25:55.820Z,16.00
2018-04-11T08:28:22.468Z,16.12
2018-04-11T08:30:49.098Z,16.45
2018-04-11T08:33:15.748Z,14.98
2018-04-11T08:35:42.379Z,15.32
2018-04-11T08:38:09.014Z,15.45
2018-04-11T08:40:35.733Z,16.73
2018-04-11T08:43:02.364Z,13.77
2018-04-11T08:45:29.036Z,15.50
2018-04-11T08:47:55.761Z,13.65
2018-04-11T08:50:22.519Z,16.12
2018-04-11T08:52:49.155Z,14.98
2018-04-11T08:55:15.790Z,13.25
2018-04-11T08:57:42.511Z,14.57
2018-04-11T09:00:09.161Z,14.43
2018-04-11T09:02:35.920Z,14.85
2018-04-11T09:05:02.555Z,15.82
2018-04-11T09:07:29.271Z,14.50
2018-04-11T09:09:55.891Z,13.73
2018-04-11T09:12:22.534Z,14.70
2018-04-11T09:14:49.195Z,15.32
2018-04-11T09:17:15.935Z,14.50
2018-04-11T09:19:42.558Z,12.85
2018-04-11T09:22:09.184Z,13.48
2018-04-11T09:24:35.850Z,13.45
2018-04-11T09:27:02.484Z,12.90
2018-04-11T09:29:29.139Z,13.13
2018-04-11T09:31:55.921Z,14.15
2018-04-11T09:34:22.555Z,12.57
2018-04-11T09:36:49.177Z,12.85
2018-04-11T09:39:15.828Z,13.35
2018-04-11T09:41:42.472Z,12.65
2018-04-11T09:44:09.121Z,13.27
2018-04-11T09:46:35.832Z,11.18
2018-04-11T09:49:02.474Z,9.85
2018-04-11T09:51:29.098Z,11.02
2018-04-11T09:53:55.817Z,10.48
2018-04-11T09:56:22.463Z,11.27
2018-04-11T09:58:49.094Z,9.90
2018-04-11T10:01:18.518Z,10.10
2018-04-11T10:03:45.156Z,10.05
2018-04-11T10:06:11.782Z,10.50
2018-04-11T10:08:38.551Z,9.48
2018-04-11T10:11:05.174Z,11.38
2018-04-11T10:13:31.815Z,9.73
2018-04-11T10:15:58.495Z,9.00
2018-04-11T10:18:25.119Z,9.25
2018-04-11T10:20:51.760Z,9.80
2018-04-11T10:23:18.387Z,9.25
2018-04-11T10:25:45.107Z,8.85
2018-04-11T10:28:11.847Z,8.65
2018-04-11T10:30:38.474Z,7.93
2018-04-11T10:33:05.223Z,7.60
2018-04-11T10:35:31.843Z,8.38
2018-04-11T10:37:58.528Z,8.25
2018-04-11T10:40:25.150Z,8.80
2018-04-11T10:42:51.800Z,9.73
2018-04-11T10:45:18.514Z,9.90
2018-04-11T10:47:45.140Z,9.65
2018-04-11T10:50:11.775Z,9.32
2018-04-11T10:52:38.394Z,8.57
2018-04-11T10:55:05.042Z,10.20
2018-04-11T10:57:31.714Z,9.80
2018-04-11T10:59:58.330Z,8.98
2018-04-11T11:02:24.997Z,8.90
2018-04-11T11:04:51.623Z,8.65
2018-04-11T11:07:18.307Z,8.50
2018-04-11T11:09:44.936Z,8.70
2018-04-11T11:12:11.584Z,10.30
2018-04-11T11:14:38.216Z,9.40
2018-04-11T11:17:04.835Z,9.73
2018-04-11T11:19:31.492Z,8.88
2018-04-11T11:21:58.216Z,8.52
2018-04-11T11:24:24.854Z,8.68
2018-04-11T11:26:51.481Z,9.77
2018-04-11T11:29:18.107Z,9.40
2018-04-11T11:31:44.747Z,9.13
2018-04-11T11:34:11.396Z,8.20
2018-04-11T11:36:38.015Z,8.13
2018-04-11T11:39:04.642Z,9.90
2018-04-11T11:41:31.287Z,7.68
2018-04-11T11:43:57.915Z,7.05
2018-04-11T11:46:24.551Z,6.95
2018-04-11T11:48:51.175Z,7.15
2018-04-11T11:51:17.872Z,8.38
2018-04-11T11:53:44.510Z,8.00
2018-04-11T11:56:11.181Z,7.30
2018-04-11T11:58:37.900Z,7.50
2018-04-11T12:01:04.636Z,7.22
2018-04-11T12:03:31.260Z,8.00
2018-04-11T12:05:57.893Z,6.57
2018-04-11T12:08:24.518Z,7.40
2018-04-11T12:10:51.150Z,7.32
2018-04-11T12:13:17.794Z,8.27
2018-04-11T12:15:44.701Z,7.28
2018-04-11T12:18:12.264Z,7.85
2018-04-11T12:20:42.486Z,7.15
2018-04-11T12:23:09.323Z,6.32
2018-04-11T12:25:36.164Z,8.00
2018-04-11T12:28:03.153Z,6.55
2018-04-11T12:30:30.477Z,6.15
2018-04-11T12:32:59.507Z,6.57
2018-04-11T12:35:28.464Z,5.53
2018-04-11T12:37:56.229Z,5.78
2018-04-11T12:40:24.657Z,6.03
2018-04-11T12:42:51.399Z,6.37
2018-04-11T12:45:18.052Z,6.03
2018-04-11T12:47:44.797Z,6.82
2018-04-11T12:50:11.604Z,6.12
2018-04-11T12:52:38.418Z,5.60
2018-04-11T12:55:05.677Z,6.10
2018-04-11T12:57:32.824Z,6.18
2018-04-11T12:59:59.875Z,6.10
2018-04-11T13:02:26.510Z,5.45
2018-04-11T13:04:53.212Z,4.45
2018-04-11T13:07:20.543Z,4.12
2018-04-11T13:09:48.000Z,4.40
2018-04-11T13:12:15.422Z,3.92
2018-04-11T13:14:42.367Z,6.18
2018-04-11T13:17:09.519Z,5.90
2018-04-11T13:19:36.287Z,4.03
2018-04-11T13:22:03.279Z,4.10
2018-04-11T13:24:29.931Z,12.82
2018-04-11T13:26:56.567Z,3.85
2018-04-11T13:29:23.333Z,3.25
2018-04-11T13:31:50.044Z,2.65
2018-04-11T13:34:16.695Z,2.23
2018-04-11T13:36:43.341Z,3.00
2018-04-11T13:39:09.957Z,3.00
2018-04-11T13:41:36.584Z,2.40
2018-04-11T13:44:03.245Z,6.57
2018-04-11T13:46:29.888Z,2.67
2018-04-11T13:48:56.515Z,2.65
2018-04-11T13:51:23.165Z,2.67
2018-04-11T13:53:49.795Z,3.83
2018-04-11T13:56:16.476Z,2.28
2018-04-11T13:58:43.096Z,3.10
2018-04-11T14:01:09.714Z,4.60
2018-04-11T14:03:36.348Z,2.43
2018-04-11T14:06:03.149Z,2.40
2018-04-11T14:08:29.775Z,2.87
2018-04-11T14:10:56.395Z,3.93
2018-04-11T14:13:23.041Z,2.80
2018-04-11T14:15:49.759Z,3.00
2018-04-11T14:18:16.384Z,2.37
2018-04-11T14:20:43.128Z,2.10
2018-04-11T14:23:09.798Z,3.10
2018-04-11T14:25:36.431Z,2.85
2018-04-11T14:28:03.064Z,2.67
2018-04-11T14:30:29.719Z,3.62
2018-04-11T14:32:56.351Z,2.80
2018-04-11T14:35:23.092Z,3.47
2018-04-11T14:37:49.752Z,2.78
2018-04-11T14:40:16.372Z,2.60
2018-04-11T14:42:43.015Z,3.30
2018-04-11T14:45:09.641Z,3.10
2018-04-11T14:47:36.271Z,3.40
2018-04-11T14:50:02.912Z,3.30
2018-04-11T14:52:29.635Z,3.85
2018-04-11T14:54:56.282Z,3.25
2018-04-11T14:57:22.914Z,4.25
2018-04-11T14:59:49.538Z,3.78
2018-04-11T15:02:16.157Z,2.90
2018-04-11T15:04:42.796Z,3.25
2018-04-11T15:07:09.503Z,3.42
2018-04-11T15:09:36.240Z,3.50
2018-04-11T15:12:02.982Z,3.75
2018-04-11T15:14:29.608Z,4.05
2018-04-11T15:16:56.231Z,2.67
2018-04-11T15:19:22.976Z,3.00
2018-04-11T15:21:49.607Z,3.60
2018-04-11T15:24:16.237Z,2.85
2018-04-11T15:26:42.920Z,2.60
2018-04-11T15:29:09.563Z,2.77
2018-04-11T15:31:36.187Z,2.83
2018-04-11T15:34:02.837Z,3.83
2018-04-11T15:36:29.480Z,4.40
2018-04-11T15:38:56.111Z,3.30
2018-04-11T15:41:22.865Z,2.65
2018-04-11T15:43:49.578Z,3.00
2018-04-11T15:46:22.189Z,2.90
2018-04-11T15:48:48.951Z,2.95
2018-04-11T15:51:15.607Z,2.42
2018-04-11T15:53:42.241Z,2.22
2018-04-11T15:56:08.876Z,2.22
2018-04-11T15:58:35.513Z,2.15
2018-04-11T16:01:02.169Z,2.55
2018-04-11T16:03:28.790Z,2.00
2018-04-11T16:05:55.420Z,2.20
2018-04-11T16:08:22.072Z,2.13
2018-04-11T16:10:48.784Z,2.70
2018-04-11T16:13:15.470Z,2.45
2018-04-11T16:15:42.083Z,2.60
2018-04-11T16:18:08.724Z,2.67
2018-04-11T16:20:35.352Z,1.93
2018-04-11T16:23:01.996Z,2.40
2018-04-11T16:25:28.623Z,2.37
2018-04-11T16:27:55.265Z,2.53
2018-04-11T16:30:21.937Z,3.15
2018-04-11T16:32:48.571Z,2.65
2018-04-11T16:35:15.199Z,2.60
2018-04-11T16:37:41.845Z,2.22
2018-04-11T16:40:08.544Z,2.47
2018-04-11T16:42:35.166Z,2.78
2018-04-11T16:45:01.817Z,1.92
2018-04-11T16:47:28.436Z,2.30
2018-04-11T16:49:55.093Z,2.42
2018-04-11T16:52:21.794Z,2.45
2018-04-11T16:54:48.374Z,1.58
2018-04-11T16:57:15.014Z,2.22
2018-04-11T16:59:41.652Z,1.70
2018-04-11T17:02:08.285Z,2.00
2018-04-11T17:04:34.910Z,2.15
2018-04-11T17:07:01.544Z,1.65
2018-04-11T17:09:28.191Z,2.40
2018-04-11T17:11:54.826Z,2.22
2018-04-11T17:14:21.476Z,1.92
2018-04-11T17:16:48.103Z,2.05
2018-04-11T17:19:14.730Z,2.20
2018-04-11T17:21:47.353Z,2.10
2018-04-11T17:24:19.810Z,3.10
2018-04-11T17:26:52.388Z,2.67
2018-04-11T17:29:24.869Z,2.60
2018-04-11T17:31:51.508Z,2.80
2018-04-11T17:34:18.149Z,2.60
2018-04-11T17:36:44.771Z,2.55
2018-04-11T17:39:11.404Z,2.50
2018-04-11T17:41:38.028Z,2.55
2018-04-11T17:44:04.655Z,2.62
2018-04-11T17:46:31.305Z,2.60
2018-04-11T17:48:57.978Z,2.58
2018-04-11T17:51:24.642Z,3.62
2018-04-11T17:53:51.351Z,3.37
2018-04-11T17:56:17.992Z,2.75
2018-04-11T17:58:44.618Z,3.33
2018-04-11T18:01:11.263Z,3.33
2018-04-11T18:03:37.914Z,4.10
2018-04-11T18:06:04.550Z,4.60
2018-04-11T18:08:31.287Z,4.80
2018-04-11T18:10:57.931Z,3.80
2018-04-11T18:13:24.569Z,4.57
2018-04-11T18:15:51.216Z,4.43
2018-04-11T18:18:17.841Z,4.60
2018-04-11T18:20:44.468Z,4.55
2018-04-11T18:23:11.128Z,4.72
2018-04-11T18:25:37.781Z,5.55
2018-04-11T18:28:04.417Z,6.25
2018-04-11T18:30:31.064Z,5.50
2018-04-11T18:32:57.685Z,5.68
2018-04-11T18:35:24.437Z,6.40
2018-04-11T18:37:51.083Z,6.22
2018-04-11T18:40:17.796Z,8.35
2018-04-11T18:42:44.417Z,8.05
2018-04-11T18:45:11.059Z,9.13
2018-04-11T18:47:37.715Z,7.80
2018-04-11T18:50:04.336Z,8.55
2018-04-11T18:52:30.995Z,8.88
2018-04-11T18:54:57.635Z,9.77
2018-04-11T18:57:24.372Z,11.38
2018-04-11T18:59:51.123Z,10.40
2018-04-11T19:02:17.751Z,9.63
2018-04-11T19:04:44.387Z,11.40
2018-04-11T19:07:11.134Z,11.05
2018-04-11T19:09:37.887Z,10.15
2018-04-11T19:12:04.516Z,9.85
2018-04-11T19:14:31.155Z,11.27
2018-04-11T19:16:57.895Z,11.82
2018-04-11T19:19:24.526Z,12.07
2018-04-11T19:21:51.178Z,12.70
2018-04-11T19:24:17.806Z,12.88
2018-04-11T19:26:44.441Z,14.05
2018-04-11T19:29:11.101Z,15.15
2018-04-11T19:31:37.741Z,14.32
2018-04-11T19:34:04.386Z,12.77
2018-04-11T19:36:31.111Z,13.95
2018-04-11T19:38:58.390Z,14.07
2018-04-11T19:41:25.224Z,13.98
2018-04-11T19:43:52.655Z,14.10
2018-04-11T19:46:19.947Z,18.98
2018-04-11T19:48:47.230Z,17.33
2018-04-11T19:51:13.910Z,16.80
2018-04-11T19:53:40.582Z,18.42
2018-04-11T19:56:07.200Z,19.30
2018-04-11T19:58:33.838Z,19.40
2018-04-11T20:01:00.484Z,18.40
2018-04-11T20:03:27.124Z,18.55
2018-04-11T20:05:53.856Z,18.05
2018-04-11T20:08:20.517Z,18.67
2018-04-11T20:10:47.142Z,17.90
2018-04-11T20:13:13.790Z,16.73
2018-04-11T20:15:40.430Z,16.70
2018-04-11T20:18:07.064Z,17.87
2018-04-11T20:20:33.712Z,18.00
2018-04-11T20:23:00.369Z,18.65
2018-04-11T20:25:26.995Z,19.35
2018-04-11T20:27:53.708Z,17.77
2018-04-11T20:30:20.345Z,20.08
2018-04-11T20:32:46.989Z,23.05
2018-04-11T20:35:13.681Z,23.15
2018-04-11T20:37:40.364Z,22.37
2018-04-11T20:40:07.051Z,21.73
2018-04-11T20:42:33.742Z,22.40
2018-04-11T20:45:00.373Z,22.37
2018-04-11T20:47:27.021Z,22.37
2018-04-11T20:49:53.767Z,22.77
2018-04-11T20:52:20.408Z,23.35
2018-04-11T20:54:47.039Z,23.95
2018-04-11T20:57:13.682Z,22.92
2018-04-11T20:59:40.427Z,22.33
2018-04-11T21:02:07.064Z,23.30
2018-04-11T21:04:33.716Z,24.77
2018-04-11T21:07:00.442Z,23.17
2018-04-11T21:09:27.076Z,23.92
2018-04-11T21:11:53.716Z,24.37
2018-04-11T21:14:20.347Z,24.85
2018-04-11T21:16:47.000Z,24.70
2018-04-11T21:19:13.739Z,26.77
2018-04-11T21:21:40.475Z,25.77
2018-04-11T21:24:07.106Z,26.67
2018-04-11T21:26:33.757Z,24.92
2018-04-11T21:29:00.391Z,25.90
2018-04-11T21:31:27.022Z,23.77
2018-04-11T21:33:53.664Z,24.48
2018-04-11T21:36:20.300Z,25.37
2018-04-11T21:38:46.952Z,23.30
2018-04-11T21:41:13.696Z,25.10
2018-04-11T21:43:40.439Z,26.52
2018-04-11T21:46:07.087Z,24.98
2018-04-11T21:48:33.733Z,23.90
2018-04-11T21:51:00.485Z,24.23
2018-04-11T21:53:27.115Z,24.30
2018-04-11T21:55:53.758Z,25.30
2018-04-11T21:58:20.389Z,23.30
2018-04-11T22:00:47.019Z,25.25
2018-04-11T22:03:13.664Z,25.05
2018-04-11T22:05:40.300Z,26.45
2018-04-11T22:08:07.027Z,24.40
2018-04-11T22:10:33.728Z,24.30
2018-04-11T22:13:00.359Z,24.40
2018-04-11T22:15:26.991Z,25.80
2018-04-11T22:39:49.892Z,29.30
2018-04-11T22:42:16.532Z,29.60
2018-04-11T22:44:43.232Z,29.92
2018-04-11T22:47:09.872Z,28.92
2018-04-11T22:49:36.504Z,29.45
2018-04-11T22:52:03.279Z,28.65
2018-04-11T22:54:29.994Z,29.00
2018-04-11T22:56:57.332Z,30.10
2018-04-11T22:59:23.981Z,31.17
2018-04-11T23:01:50.616Z,29.12
2018-04-11T23:04:17.253Z,30.50
2018-04-11T23:06:43.899Z,29.20
2018-04-11T23:09:10.535Z,31.75
2018-04-11T23:11:37.169Z,29.35
2018-04-11T23:14:03.815Z,28.83
2018-04-11T23:16:30.461Z,32.30
2018-04-11T23:18:57.093Z,31.23
2018-04-11T23:21:23.743Z,28.33
2018-04-11T23:23:50.381Z,28.33
2018-04-11T23:26:17.008Z,30.17
2018-04-11T23:28:43.668Z,27.62
2018-04-11T23:31:10.304Z,28.95
2018-04-11T23:33:36.947Z,26.37
2018-04-11T23:36:03.605Z,24.77
2018-04-11T23:38:30.236Z,24.20
2018-04-11T23:40:56.858Z,26.02
2018-04-11T23:43:23.503Z,24.83
2018-04-11T23:45:50.131Z,23.33
2018-04-11T23:48:16.755Z,20.73
2018-04-11T23:50:43.408Z,20.73
2018-04-11T23:53:10.035Z,20.17
2018-04-11T23:55:36.658Z,19.80
2018-04-11T23:58:03.323Z,19.02
